sensor_id;sensor_type;location;lat;lon;timestamp;P1;durP1;ratioP1;P2;durP2;ratioP2
52642;SDS011;38531;53.296;6.614;2023-07-31T00:02:06;1.10;;;0.80;;
52642;SDS011;38531;53.296;6.614;2023-07-31T00:04:32;1.88;;;1.02;;
52642;SDS011;38531;53.296;6.614;2023-07-31T00:06:57;1.20;;;0.73;;
52642;SDS011;38531;53.296;6.614;2023-07-31T00:09:23;2.45;;;0.90;;
52642;SDS011;38531;53.296;6.614;2023-07-31T00:11:51;1.67;;;0.98;;
52642;SDS011;38531;53.296;6.614;2023-07-31T00:14:19;1.98;;;0.90;;
52642;SDS011;38531;53.296;6.614;2023-07-31T00:16:45;3.83;;;1.00;;
52642;SDS011;38531;53.296;6.614;2023-07-31T00:19:14;1.38;;;0.90;;
52642;SDS011;38531;53.296;6.614;2023-07-31T00:21:39;1.77;;;0.90;;
52642;SDS011;38531;53.296;6.614;2023-07-31T00:24:05;2.70;;;1.33;;
52642;SDS011;38531;53.296;6.614;2023-07-31T00:26:31;1.67;;;0.80;;
52642;SDS011;38531;53.296;6.614;2023-07-31T00:28:57;1.17;;;0.90;;
52642;SDS011;38531;53.296;6.614;2023-07-31T00:31:23;1.75;;;0.95;;
52642;SDS011;38531;53.296;6.614;2023-07-31T00:33:48;0.85;;;0.68;;
52642;SDS011;38531;53.296;6.614;2023-07-31T00:36:16;1.95;;;0.98;;
52642;SDS011;38531;53.296;6.614;2023-07-31T00:38:43;1.40;;;0.60;;
52642;SDS011;38531;53.296;6.614;2023-07-31T00:41:11;0.70;;;0.40;;
52642;SDS011;38531;53.296;6.614;2023-07-31T00:43:37;1.42;;;0.70;;
52642;SDS011;38531;53.296;6.614;2023-07-31T00:46:03;2.50;;;0.70;;
52642;SDS011;38531;53.296;6.614;2023-07-31T00:48:29;3.78;;;0.60;;
52642;SDS011;38531;53.296;6.614;2023-07-31T00:50:55;0.90;;;0.50;;
52642;SDS011;38531;53.296;6.614;2023-07-31T00:53:23;2.67;;;0.60;;
52642;SDS011;38531;53.296;6.614;2023-07-31T00:55:50;1.23;;;0.60;;
52642;SDS011;38531;53.296;6.614;2023-07-31T00:58:17;0.77;;;0.40;;
52642;SDS011;38531;53.296;6.614;2023-07-31T01:00:43;1.17;;;0.32;;
52642;SDS011;38531;53.296;6.614;2023-07-31T01:03:09;0.45;;;0.40;;
52642;SDS011;38531;53.296;6.614;2023-07-31T01:11:33;2.13;;;0.50;;
52642;SDS011;38531;53.296;6.614;2023-07-31T01:14:07;0.93;;;0.50;;
52642;SDS011;38531;53.296;6.614;2023-07-31T01:16:33;1.20;;;0.63;;
52642;SDS011;38531;53.296;6.614;2023-07-31T01:18:58;0.57;;;0.40;;
52642;SDS011;38531;53.296;6.614;2023-07-31T01:24:22;0.98;;;0.60;;
52642;SDS011;38531;53.296;6.614;2023-07-31T01:26:55;1.27;;;0.50;;
52642;SDS011;38531;53.296;6.614;2023-07-31T01:32:05;0.63;;;0.40;;
52642;SDS011;38531;53.296;6.614;2023-07-31T01:34:37;0.73;;;0.40;;
52642;SDS011;38531;53.296;6.614;2023-07-31T01:37:04;0.93;;;0.45;;
52642;SDS011;38531;53.296;6.614;2023-07-31T01:39:33;0.60;;;0.30;;
52642;SDS011;38531;53.296;6.614;2023-07-31T01:41:59;0.60;;;0.30;;
52642;SDS011;38531;53.296;6.614;2023-07-31T01:44:25;0.75;;;0.30;;
52642;SDS011;38531;53.296;6.614;2023-07-31T01:46:54;0.43;;;0.30;;
52642;SDS011;38531;53.296;6.614;2023-07-31T01:49:19;1.75;;;0.40;;
52642;SDS011;38531;53.296;6.614;2023-07-31T01:51:48;0.80;;;0.30;;
52642;SDS011;38531;53.296;6.614;2023-07-31T01:54:17;0.45;;;0.30;;
52642;SDS011;38531;53.296;6.614;2023-07-31T01:56:43;0.60;;;0.43;;
52642;SDS011;38531;53.296;6.614;2023-07-31T01:59:09;0.57;;;0.40;;
52642;SDS011;38531;53.296;6.614;2023-07-31T02:01:34;1.30;;;0.57;;
52642;SDS011;38531;53.296;6.614;2023-07-31T02:04:02;1.27;;;0.50;;
52642;SDS011;38531;53.296;6.614;2023-07-31T02:06:35;0.63;;;0.47;;
52642;SDS011;38531;53.296;6.614;2023-07-31T02:09:23;0.65;;;0.57;;
52642;SDS011;38531;53.296;6.614;2023-07-31T02:11:49;0.98;;;0.55;;
52642;SDS011;38531;53.296;6.614;2023-07-31T02:14:15;1.17;;;0.50;;
52642;SDS011;38531;53.296;6.614;2023-07-31T02:16:53;0.63;;;0.50;;
52642;SDS011;38531;53.296;6.614;2023-07-31T02:19:23;0.75;;;0.50;;
52642;SDS011;38531;53.296;6.614;2023-07-31T02:21:52;0.73;;;0.40;;
52642;SDS011;38531;53.296;6.614;2023-07-31T02:24:29;0.70;;;0.47;;
52642;SDS011;38531;53.296;6.614;2023-07-31T02:26:59;0.77;;;0.50;;
52642;SDS011;38531;53.296;6.614;2023-07-31T02:29:53;0.82;;;0.43;;
52642;SDS011;38531;53.296;6.614;2023-07-31T02:32:33;0.50;;;0.40;;
52642;SDS011;38531;53.296;6.614;2023-07-31T02:35:02;0.75;;;0.43;;
52642;SDS011;38531;53.296;6.614;2023-07-31T02:37:36;0.57;;;0.30;;
52642;SDS011;38531;53.296;6.614;2023-07-31T02:40:12;0.77;;;0.30;;
52642;SDS011;38531;53.296;6.614;2023-07-31T02:42:41;0.65;;;0.30;;
52642;SDS011;38531;53.296;6.614;2023-07-31T02:45:07;0.73;;;0.40;;
52642;SDS011;38531;53.296;6.614;2023-07-31T02:48:04;1.20;;;0.35;;
52642;SDS011;38531;53.296;6.614;2023-07-31T02:50:39;0.73;;;0.45;;
52642;SDS011;38531;53.296;6.614;2023-07-31T02:53:07;1.85;;;0.40;;
52642;SDS011;38531;53.296;6.614;2023-07-31T02:55:39;0.93;;;0.40;;
52642;SDS011;38531;53.296;6.614;2023-07-31T02:58:24;0.98;;;0.30;;
52642;SDS011;38531;53.296;6.614;2023-07-31T03:00:53;0.40;;;0.30;;
52642;SDS011;38531;53.296;6.614;2023-07-31T03:03:35;0.30;;;0.30;;
52642;SDS011;38531;53.296;6.614;2023-07-31T03:06:19;1.15;;;0.30;;
52642;SDS011;38531;53.296;6.614;2023-07-31T03:08:53;1.05;;;0.30;;
52642;SDS011;38531;53.296;6.614;2023-07-31T03:11:23;1.05;;;0.30;;
52642;SDS011;38531;53.296;6.614;2023-07-31T03:13:59;0.57;;;0.30;;
52642;SDS011;38531;53.296;6.614;2023-07-31T03:16:38;1.95;;;0.30;;
52642;SDS011;38531;53.296;6.614;2023-07-31T03:22:18;0.47;;;0.30;;
52642;SDS011;38531;53.296;6.614;2023-07-31T03:25:07;0.75;;;0.40;;
52642;SDS011;38531;53.296;6.614;2023-07-31T03:27:43;0.43;;;0.30;;
52642;SDS011;38531;53.296;6.614;2023-07-31T03:30:31;0.43;;;0.30;;
52642;SDS011;38531;53.296;6.614;2023-07-31T03:44:12;0.32;;;0.30;;
52642;SDS011;38531;53.296;6.614;2023-07-31T03:47:18;0.98;;;0.20;;
52642;SDS011;38531;53.296;6.614;2023-07-31T03:50:10;0.85;;;0.10;;
52642;SDS011;38531;53.296;6.614;2023-07-31T03:53:12;2.65;;;0.30;;
52642;SDS011;38531;53.296;6.614;2023-07-31T03:59:35;0.30;;;0.10;;
52642;SDS011;38531;53.296;6.614;2023-07-31T04:02:37;1.00;;;0.17;;
52642;SDS011;38531;53.296;6.614;2023-07-31T04:05:37;0.30;;;0.10;;
52642;SDS011;38531;53.296;6.614;2023-07-31T04:11:39;0.55;;;0.30;;
52642;SDS011;38531;53.296;6.614;2023-07-31T04:26:01;2.17;;;0.20;;
52642;SDS011;38531;53.296;6.614;2023-07-31T04:28:54;0.93;;;0.25;;
52642;SDS011;38531;53.296;6.614;2023-07-31T04:31:47;1.65;;;0.30;;
52642;SDS011;38531;53.296;6.614;2023-07-31T04:34:53;0.22;;;0.17;;
52642;SDS011;38531;53.296;6.614;2023-07-31T04:54:23;0.43;;;0.20;;
52642;SDS011;38531;53.296;6.614;2023-07-31T04:57:17;0.75;;;0.30;;
52642;SDS011;38531;53.296;6.614;2023-07-31T05:14:11;0.30;;;0.20;;
52642;SDS011;38531;53.296;6.614;2023-07-31T05:31:41;0.10;;;0.10;;
52642;SDS011;38531;53.296;6.614;2023-07-31T05:34:56;2.80;;;0.20;;
52642;SDS011;38531;53.296;6.614;2023-07-31T05:55:14;0.08;;;0.08;;
52642;SDS011;38531;53.296;6.614;2023-07-31T05:58:10;1.00;;;0.10;;
52642;SDS011;38531;53.296;6.614;2023-07-31T06:01:18;0.10;;;0.10;;
52642;SDS011;38531;53.296;6.614;2023-07-31T06:10:39;0.20;;;0.10;;
52642;SDS011;38531;53.296;6.614;2023-07-31T06:13:30;0.10;;;0.08;;
52642;SDS011;38531;53.296;6.614;2023-07-31T06:15:58;0.10;;;0.10;;
52642;SDS011;38531;53.296;6.614;2023-07-31T06:20:58;0.03;;;0.00;;
52642;SDS011;38531;53.296;6.614;2023-07-31T06:23:43;0.15;;;0.10;;
52642;SDS011;38531;53.296;6.614;2023-07-31T07:05:27;1.10;;;0.60;;
52642;SDS011;38531;53.296;6.614;2023-07-31T07:18:23;6.25;;;1.50;;
52642;SDS011;38531;53.296;6.614;2023-07-31T07:20:52;5.00;;;1.20;;
52642;SDS011;38531;53.296;6.614;2023-07-31T07:23:46;6.47;;;1.15;;
52642;SDS011;38531;53.296;6.614;2023-07-31T07:26:11;7.00;;;2.30;;
52642;SDS011;38531;53.296;6.614;2023-07-31T07:28:37;7.70;;;1.38;;
52642;SDS011;38531;53.296;6.614;2023-07-31T07:31:05;5.82;;;1.50;;
52642;SDS011;38531;53.296;6.614;2023-07-31T07:33:46;8.07;;;1.52;;
52642;SDS011;38531;53.296;6.614;2023-07-31T07:36:17;3.88;;;1.73;;
52642;SDS011;38531;53.296;6.614;2023-07-31T07:38:43;11.40;;;1.90;;
52642;SDS011;38531;53.296;6.614;2023-07-31T07:41:11;3.88;;;1.42;;
52642;SDS011;38531;53.296;6.614;2023-07-31T07:43:39;3.95;;;1.30;;
52642;SDS011;38531;53.296;6.614;2023-07-31T07:46:05;2.42;;;0.90;;
52642;SDS011;38531;53.296;6.614;2023-07-31T07:48:31;2.95;;;0.70;;
52642;SDS011;38531;53.296;6.614;2023-07-31T07:50:56;5.45;;;1.25;;
52642;SDS011;38531;53.296;6.614;2023-07-31T07:53:22;6.25;;;1.90;;
52642;SDS011;38531;53.296;6.614;2023-07-31T07:55:48;5.85;;;2.55;;
52642;SDS011;38531;53.296;6.614;2023-07-31T07:58:14;4.80;;;1.27;;
52642;SDS011;38531;53.296;6.614;2023-07-31T08:00:39;2.53;;;0.90;;
52642;SDS011;38531;53.296;6.614;2023-07-31T08:03:07;2.90;;;1.55;;
52642;SDS011;38531;53.296;6.614;2023-07-31T08:05:34;4.00;;;1.67;;
52642;SDS011;38531;53.296;6.614;2023-07-31T08:08:00;5.38;;;1.20;;
52642;SDS011;38531;53.296;6.614;2023-07-31T08:10:29;4.50;;;1.15;;
52642;SDS011;38531;53.296;6.614;2023-07-31T08:12:55;5.45;;;1.25;;
52642;SDS011;38531;53.296;6.614;2023-07-31T08:15:23;4.22;;;1.45;;
52642;SDS011;38531;53.296;6.614;2023-07-31T08:17:48;1.75;;;0.55;;
52642;SDS011;38531;53.296;6.614;2023-07-31T08:20:14;1.20;;;0.40;;
52642;SDS011;38531;53.296;6.614;2023-07-31T08:22:40;1.23;;;0.30;;
52642;SDS011;38531;53.296;6.614;2023-07-31T08:25:06;1.98;;;0.30;;
52642;SDS011;38531;53.296;6.614;2023-07-31T08:27:32;1.02;;;0.17;;
52642;SDS011;38531;53.296;6.614;2023-07-31T08:29:58;0.98;;;0.25;;
52642;SDS011;38531;53.296;6.614;2023-07-31T08:32:24;1.15;;;0.20;;
52642;SDS011;38531;53.296;6.614;2023-07-31T08:34:50;0.45;;;0.20;;
52642;SDS011;38531;53.296;6.614;2023-07-31T08:37:27;0.20;;;0.10;;
52642;SDS011;38531;53.296;6.614;2023-07-31T08:39:53;0.57;;;0.30;;
52642;SDS011;38531;53.296;6.614;2023-07-31T08:42:20;0.30;;;0.20;;
52642;SDS011;38531;53.296;6.614;2023-07-31T08:44:46;0.50;;;0.30;;
52642;SDS011;38531;53.296;6.614;2023-07-31T08:47:13;3.03;;;0.30;;
52642;SDS011;38531;53.296;6.614;2023-07-31T08:49:58;0.20;;;0.20;;
52642;SDS011;38531;53.296;6.614;2023-07-31T08:52:25;0.43;;;0.20;;
52642;SDS011;38531;53.296;6.614;2023-07-31T08:54:51;0.43;;;0.30;;
52642;SDS011;38531;53.296;6.614;2023-07-31T08:57:16;0.40;;;0.20;;
52642;SDS011;38531;53.296;6.614;2023-07-31T08:59:45;0.32;;;0.10;;
52642;SDS011;38531;53.296;6.614;2023-07-31T09:02:11;0.70;;;0.15;;
52642;SDS011;38531;53.296;6.614;2023-07-31T09:04:39;0.30;;;0.13;;
52642;SDS011;38531;53.296;6.614;2023-07-31T09:07:05;1.20;;;0.30;;
52642;SDS011;38531;53.296;6.614;2023-07-31T09:09:32;0.57;;;0.20;;
52642;SDS011;38531;53.296;6.614;2023-07-31T09:11:58;0.20;;;0.17;;
52642;SDS011;38531;53.296;6.614;2023-07-31T09:14:24;1.35;;;0.10;;
52642;SDS011;38531;53.296;6.614;2023-07-31T09:16:54;0.15;;;0.10;;
52642;SDS011;38531;53.296;6.614;2023-07-31T09:19:29;0.15;;;0.10;;
52642;SDS011;38531;53.296;6.614;2023-07-31T09:21:58;0.10;;;0.10;;
52642;SDS011;38531;53.296;6.614;2023-07-31T09:24:25;0.10;;;0.10;;
52642;SDS011;38531;53.296;6.614;2023-07-31T09:26:55;0.20;;;0.10;;
52642;SDS011;38531;53.296;6.614;2023-07-31T09:29:21;0.08;;;0.03;;
52642;SDS011;38531;53.296;6.614;2023-07-31T09:31:47;0.28;;;0.10;;
52642;SDS011;38531;53.296;6.614;2023-07-31T09:34:13;0.20;;;0.10;;
52642;SDS011;38531;53.296;6.614;2023-07-31T09:36:40;0.00;;;0.00;;
52642;SDS011;38531;53.296;6.614;2023-07-31T09:39:08;0.28;;;0.10;;
52642;SDS011;38531;53.296;6.614;2023-07-31T09:41:40;0.20;;;0.10;;
52642;SDS011;38531;53.296;6.614;2023-07-31T09:44:08;0.45;;;0.10;;
52642;SDS011;38531;53.296;6.614;2023-07-31T09:46:37;0.22;;;0.10;;
52642;SDS011;38531;53.296;6.614;2023-07-31T09:49:07;0.10;;;0.10;;
52642;SDS011;38531;53.296;6.614;2023-07-31T09:51:34;0.10;;;0.10;;
52642;SDS011;38531;53.296;6.614;2023-07-31T09:54:04;0.10;;;0.10;;
52642;SDS011;38531;53.296;6.614;2023-07-31T09:56:43;0.10;;;0.10;;
52642;SDS011;38531;53.296;6.614;2023-07-31T09:59:14;0.20;;;0.00;;
52642;SDS011;38531;53.296;6.614;2023-07-31T10:01:41;0.10;;;0.10;;
52642;SDS011;38531;53.296;6.614;2023-07-31T10:04:09;0.10;;;0.10;;
52642;SDS011;38531;53.296;6.614;2023-07-31T10:06:36;0.00;;;0.00;;
52642;SDS011;38531;53.296;6.614;2023-07-31T10:09:07;0.08;;;0.00;;
52642;SDS011;38531;53.296;6.614;2023-07-31T10:11:38;0.10;;;0.00;;
52642;SDS011;38531;53.296;6.614;2023-07-31T10:14:07;0.00;;;0.00;;
52642;SDS011;38531;53.296;6.614;2023-07-31T10:16:34;0.25;;;0.00;;
52642;SDS011;38531;53.296;6.614;2023-07-31T10:19:00;0.00;;;0.00;;
52642;SDS011;38531;53.296;6.614;2023-07-31T10:21:27;0.10;;;0.10;;
52642;SDS011;38531;53.296;6.614;2023-07-31T10:23:53;0.05;;;0.05;;
52642;SDS011;38531;53.296;6.614;2023-07-31T10:26:20;0.10;;;0.10;;
52642;SDS011;38531;53.296;6.614;2023-07-31T10:28:50;0.10;;;0.03;;
52642;SDS011;38531;53.296;6.614;2023-07-31T10:31:25;0.70;;;0.10;;
52642;SDS011;38531;53.296;6.614;2023-07-31T10:33:53;0.10;;;0.10;;
52642;SDS011;38531;53.296;6.614;2023-07-31T10:36:21;0.10;;;0.10;;
52642;SDS011;38531;53.296;6.614;2023-07-31T10:38:50;1.38;;;0.00;;
52642;SDS011;38531;53.296;6.614;2023-07-31T10:41:16;1.52;;;0.10;;
52642;SDS011;38531;53.296;6.614;2023-07-31T10:43:42;0.57;;;0.45;;
52642;SDS011;38531;53.296;6.614;2023-07-31T10:46:08;2.22;;;0.35;;
52642;SDS011;38531;53.296;6.614;2023-07-31T10:48:37;0.28;;;0.15;;
52642;SDS011;38531;53.296;6.614;2023-07-31T10:51:10;0.85;;;0.20;;
52642;SDS011;38531;53.296;6.614;2023-07-31T10:53:37;0.50;;;0.20;;
52642;SDS011;38531;53.296;6.614;2023-07-31T10:56:05;1.55;;;0.93;;
52642;SDS011;38531;53.296;6.614;2023-07-31T10:58:33;0.30;;;0.10;;
52642;SDS011;38531;53.296;6.614;2023-07-31T11:01:00;0.10;;;0.10;;
52642;SDS011;38531;53.296;6.614;2023-07-31T11:16:05;0.68;;;0.13;;
52642;SDS011;38531;53.296;6.614;2023-07-31T11:18:31;0.20;;;0.03;;
52642;SDS011;38531;53.296;6.614;2023-07-31T11:20:58;0.13;;;0.10;;
52642;SDS011;38531;53.296;6.614;2023-07-31T11:23:23;1.13;;;0.22;;
52642;SDS011;38531;53.296;6.614;2023-07-31T11:25:49;0.22;;;0.10;;
52642;SDS011;38531;53.296;6.614;2023-07-31T11:28:16;0.88;;;0.20;;
52642;SDS011;38531;53.296;6.614;2023-07-31T11:30:46;0.32;;;0.20;;
52642;SDS011;38531;53.296;6.614;2023-07-31T11:33:17;0.35;;;0.17;;
52642;SDS011;38531;53.296;6.614;2023-07-31T11:35:48;1.63;;;0.20;;
52642;SDS011;38531;53.296;6.614;2023-07-31T11:38:21;0.57;;;0.30;;
52642;SDS011;38531;53.296;6.614;2023-07-31T11:40:49;3.30;;;0.33;;
52642;SDS011;38531;53.296;6.614;2023-07-31T11:43:14;0.50;;;0.28;;
52642;SDS011;38531;53.296;6.614;2023-07-31T11:45:42;0.22;;;0.20;;
52642;SDS011;38531;53.296;6.614;2023-07-31T11:48:27;0.30;;;0.10;;
52642;SDS011;38531;53.296;6.614;2023-07-31T11:50:59;0.30;;;0.20;;
52642;SDS011;38531;53.296;6.614;2023-07-31T11:56:06;0.35;;;0.17;;
52642;SDS011;38531;53.296;6.614;2023-07-31T11:58:35;2.28;;;0.10;;
52642;SDS011;38531;53.296;6.614;2023-07-31T12:01:01;0.10;;;0.10;;
52642;SDS011;38531;53.296;6.614;2023-07-31T12:07:27;1.50;;;0.10;;
52642;SDS011;38531;53.296;6.614;2023-07-31T12:09:56;2.00;;;0.20;;
52642;SDS011;38531;53.296;6.614;2023-07-31T12:12:23;0.25;;;0.13;;
52642;SDS011;38531;53.296;6.614;2023-07-31T12:14:52;1.05;;;0.22;;
52642;SDS011;38531;53.296;6.614;2023-07-31T12:17:20;1.35;;;0.20;;
52642;SDS011;38531;53.296;6.614;2023-07-31T12:19:45;1.08;;;0.30;;
52642;SDS011;38531;53.296;6.614;2023-07-31T12:22:14;0.20;;;0.10;;
52642;SDS011;38531;53.296;6.614;2023-07-31T12:24:41;0.17;;;0.10;;
52642;SDS011;38531;53.296;6.614;2023-07-31T12:27:10;0.38;;;0.20;;
52642;SDS011;38531;53.296;6.614;2023-07-31T12:29:37;0.30;;;0.10;;
52642;SDS011;38531;53.296;6.614;2023-07-31T12:32:04;2.67;;;0.20;;
52642;SDS011;38531;53.296;6.614;2023-07-31T12:34:43;0.65;;;0.20;;
52642;SDS011;38531;53.296;6.614;2023-07-31T12:37:11;1.90;;;0.30;;
52642;SDS011;38531;53.296;6.614;2023-07-31T12:39:37;1.25;;;0.20;;
52642;SDS011;38531;53.296;6.614;2023-07-31T12:42:03;0.43;;;0.10;;
52642;SDS011;38531;53.296;6.614;2023-07-31T12:44:29;0.40;;;0.15;;
52642;SDS011;38531;53.296;6.614;2023-07-31T12:46:55;0.32;;;0.10;;
52642;SDS011;38531;53.296;6.614;2023-07-31T12:49:20;1.77;;;0.15;;
52642;SDS011;38531;53.296;6.614;2023-07-31T12:51:46;0.40;;;0.13;;
52642;SDS011;38531;53.296;6.614;2023-07-31T12:54:12;0.25;;;0.20;;
52642;SDS011;38531;53.296;6.614;2023-07-31T12:56:38;0.52;;;0.20;;
52642;SDS011;38531;53.296;6.614;2023-07-31T12:59:03;0.30;;;0.20;;
52642;SDS011;38531;53.296;6.614;2023-07-31T13:01:29;2.58;;;0.40;;
52642;SDS011;38531;53.296;6.614;2023-07-31T13:07:39;0.75;;;0.20;;
52642;SDS011;38531;53.296;6.614;2023-07-31T13:10:06;1.20;;;0.10;;
52642;SDS011;38531;53.296;6.614;2023-07-31T13:12:32;1.08;;;0.20;;
52642;SDS011;38531;53.296;6.614;2023-07-31T13:14:59;0.63;;;0.30;;
52642;SDS011;38531;53.296;6.614;2023-07-31T13:17:24;0.73;;;0.20;;
52642;SDS011;38531;53.296;6.614;2023-07-31T13:19:51;1.35;;;0.20;;
52642;SDS011;38531;53.296;6.614;2023-07-31T13:22:16;1.35;;;0.30;;
52642;SDS011;38531;53.296;6.614;2023-07-31T13:24:42;0.82;;;0.20;;
52642;SDS011;38531;53.296;6.614;2023-07-31T13:27:08;4.70;;;0.40;;
52642;SDS011;38531;53.296;6.614;2023-07-31T13:29:33;1.08;;;0.20;;
52642;SDS011;38531;53.296;6.614;2023-07-31T13:31:59;2.42;;;0.20;;
52642;SDS011;38531;53.296;6.614;2023-07-31T13:34:25;3.28;;;0.50;;
52642;SDS011;38531;53.296;6.614;2023-07-31T13:36:50;1.58;;;0.40;;
52642;SDS011;38531;53.296;6.614;2023-07-31T13:39:16;2.45;;;0.65;;
52642;SDS011;38531;53.296;6.614;2023-07-31T13:41:42;3.42;;;0.40;;
52642;SDS011;38531;53.296;6.614;2023-07-31T13:44:07;0.77;;;0.25;;
52642;SDS011;38531;53.296;6.614;2023-07-31T13:46:33;4.35;;;0.52;;
52642;SDS011;38531;53.296;6.614;2023-07-31T13:48:59;2.85;;;0.40;;
52642;SDS011;38531;53.296;6.614;2023-07-31T13:51:26;2.28;;;0.40;;
52642;SDS011;38531;53.296;6.614;2023-07-31T13:53:53;2.53;;;0.43;;
52642;SDS011;38531;53.296;6.614;2023-07-31T13:56:19;2.40;;;0.52;;
52642;SDS011;38531;53.296;6.614;2023-07-31T13:58:44;2.80;;;0.60;;
52642;SDS011;38531;53.296;6.614;2023-07-31T14:01:10;2.10;;;0.40;;
52642;SDS011;38531;53.296;6.614;2023-07-31T14:03:36;2.17;;;0.47;;
52642;SDS011;38531;53.296;6.614;2023-07-31T14:06:02;1.17;;;0.50;;
52642;SDS011;38531;53.296;6.614;2023-07-31T14:08:27;2.30;;;0.63;;
52642;SDS011;38531;53.296;6.614;2023-07-31T14:10:54;1.67;;;0.60;;
52642;SDS011;38531;53.296;6.614;2023-07-31T14:13:23;2.92;;;0.95;;
52642;SDS011;38531;53.296;6.614;2023-07-31T14:15:49;4.07;;;1.95;;
52642;SDS011;38531;53.296;6.614;2023-07-31T14:18:15;3.78;;;0.50;;
52642;SDS011;38531;53.296;6.614;2023-07-31T14:20:40;2.10;;;0.50;;
52642;SDS011;38531;53.296;6.614;2023-07-31T14:23:09;2.17;;;0.65;;
52642;SDS011;38531;53.296;6.614;2023-07-31T14:25:34;1.33;;;0.50;;
52642;SDS011;38531;53.296;6.614;2023-07-31T14:28:00;3.45;;;0.60;;
52642;SDS011;38531;53.296;6.614;2023-07-31T14:30:26;1.45;;;0.60;;
52642;SDS011;38531;53.296;6.614;2023-07-31T14:32:54;2.72;;;0.60;;
52642;SDS011;38531;53.296;6.614;2023-07-31T14:35:20;2.55;;;0.50;;
52642;SDS011;38531;53.296;6.614;2023-07-31T14:37:45;2.17;;;0.60;;
52642;SDS011;38531;53.296;6.614;2023-07-31T14:40:12;1.65;;;0.60;;
52642;SDS011;38531;53.296;6.614;2023-07-31T14:42:38;2.50;;;0.70;;
52642;SDS011;38531;53.296;6.614;2023-07-31T14:45:05;2.90;;;0.93;;
52642;SDS011;38531;53.296;6.614;2023-07-31T14:47:31;2.03;;;1.10;;
52642;SDS011;38531;53.296;6.614;2023-07-31T14:49:58;3.28;;;0.70;;
52642;SDS011;38531;53.296;6.614;2023-07-31T14:52:25;2.88;;;0.70;;
52642;SDS011;38531;53.296;6.614;2023-07-31T14:54:51;2.58;;;0.43;;
52642;SDS011;38531;53.296;6.614;2023-07-31T14:57:17;3.25;;;0.80;;
52642;SDS011;38531;53.296;6.614;2023-07-31T14:59:42;2.72;;;0.90;;
52642;SDS011;38531;53.296;6.614;2023-07-31T15:02:09;0.75;;;0.40;;
52642;SDS011;38531;53.296;6.614;2023-07-31T15:04:37;3.00;;;0.75;;
52642;SDS011;38531;53.296;6.614;2023-07-31T15:07:04;3.00;;;0.80;;
52642;SDS011;38531;53.296;6.614;2023-07-31T15:09:30;2.88;;;1.00;;
52642;SDS011;38531;53.296;6.614;2023-07-31T15:11:56;5.97;;;1.45;;
52642;SDS011;38531;53.296;6.614;2023-07-31T15:14:22;3.85;;;0.75;;
52642;SDS011;38531;53.296;6.614;2023-07-31T15:16:49;4.30;;;0.70;;
52642;SDS011;38531;53.296;6.614;2023-07-31T15:23:31;5.25;;;0.90;;
52642;SDS011;38531;53.296;6.614;2023-07-31T15:25:57;3.03;;;0.77;;
52642;SDS011;38531;53.296;6.614;2023-07-31T15:28:23;3.65;;;0.70;;
52642;SDS011;38531;53.296;6.614;2023-07-31T15:30:48;3.17;;;0.95;;
52642;SDS011;38531;53.296;6.614;2023-07-31T15:33:15;2.97;;;0.93;;
52642;SDS011;38531;53.296;6.614;2023-07-31T15:35:40;2.65;;;0.68;;
52642;SDS011;38531;53.296;6.614;2023-07-31T15:38:07;4.55;;;0.75;;
52642;SDS011;38531;53.296;6.614;2023-07-31T15:40:32;2.75;;;0.63;;
52642;SDS011;38531;53.296;6.614;2023-07-31T15:42:58;3.10;;;0.80;;
52642;SDS011;38531;53.296;6.614;2023-07-31T15:45:25;3.40;;;0.90;;
52642;SDS011;38531;53.296;6.614;2023-07-31T15:47:51;2.88;;;0.80;;
52642;SDS011;38531;53.296;6.614;2023-07-31T15:50:16;1.40;;;0.50;;
52642;SDS011;38531;53.296;6.614;2023-07-31T15:52:43;5.53;;;1.00;;
52642;SDS011;38531;53.296;6.614;2023-07-31T15:55:09;3.72;;;0.80;;
52642;SDS011;38531;53.296;6.614;2023-07-31T15:57:35;3.33;;;0.70;;
52642;SDS011;38531;53.296;6.614;2023-07-31T16:00:01;2.83;;;0.65;;
52642;SDS011;38531;53.296;6.614;2023-07-31T16:02:27;1.23;;;0.52;;
52642;SDS011;38531;53.296;6.614;2023-07-31T16:04:53;3.67;;;1.27;;
52642;SDS011;38531;53.296;6.614;2023-07-31T16:07:19;3.13;;;0.70;;
52642;SDS011;38531;53.296;6.614;2023-07-31T16:09:56;3.10;;;0.80;;
52642;SDS011;38531;53.296;6.614;2023-07-31T16:12:42;3.55;;;0.50;;
52642;SDS011;38531;53.296;6.614;2023-07-31T16:20:09;2.53;;;0.70;;
52642;SDS011;38531;53.296;6.614;2023-07-31T16:22:35;1.42;;;0.50;;
52642;SDS011;38531;53.296;6.614;2023-07-31T16:25:00;2.08;;;0.30;;
52642;SDS011;38531;53.296;6.614;2023-07-31T16:27:28;3.75;;;0.55;;
52642;SDS011;38531;53.296;6.614;2023-07-31T16:29:54;3.42;;;0.50;;
52642;SDS011;38531;53.296;6.614;2023-07-31T16:32:21;2.10;;;0.60;;
52642;SDS011;38531;53.296;6.614;2023-07-31T16:34:46;3.20;;;0.60;;
52642;SDS011;38531;53.296;6.614;2023-07-31T16:37:12;4.13;;;0.80;;
52642;SDS011;38531;53.296;6.614;2023-07-31T16:39:40;3.08;;;0.60;;
52642;SDS011;38531;53.296;6.614;2023-07-31T16:42:12;2.35;;;0.60;;
52642;SDS011;38531;53.296;6.614;2023-07-31T16:44:38;3.53;;;0.60;;
52642;SDS011;38531;53.296;6.614;2023-07-31T17:33:03;1.52;;;0.40;;
52642;SDS011;38531;53.296;6.614;2023-07-31T19:25:30;0.80;;;0.50;;
52642;SDS011;38531;53.296;6.614;2023-07-31T19:27:56;0.70;;;0.40;;
52642;SDS011;38531;53.296;6.614;2023-07-31T19:30:21;1.05;;;0.50;;
52642;SDS011;38531;53.296;6.614;2023-07-31T19:32:47;1.73;;;0.50;;
52642;SDS011;38531;53.296;6.614;2023-07-31T19:35:14;2.35;;;0.60;;
52642;SDS011;38531;53.296;6.614;2023-07-31T19:37:40;1.33;;;0.47;;
52642;SDS011;38531;53.296;6.614;2023-07-31T19:40:06;3.10;;;0.40;;
52642;SDS011;38531;53.296;6.614;2023-07-31T19:42:34;1.52;;;0.43;;
52642;SDS011;38531;53.296;6.614;2023-07-31T19:45:03;1.45;;;0.50;;
52642;SDS011;38531;53.296;6.614;2023-07-31T19:47:29;2.10;;;0.47;;
52642;SDS011;38531;53.296;6.614;2023-07-31T19:49:55;1.38;;;0.50;;
52642;SDS011;38531;53.296;6.614;2023-07-31T19:52:21;1.80;;;0.57;;
52642;SDS011;38531;53.296;6.614;2023-07-31T19:54:47;1.33;;;0.50;;
52642;SDS011;38531;53.296;6.614;2023-07-31T19:57:13;1.83;;;0.60;;
52642;SDS011;38531;53.296;6.614;2023-07-31T19:59:38;1.02;;;0.40;;
52642;SDS011;38531;53.296;6.614;2023-07-31T20:02:04;2.40;;;0.77;;
52642;SDS011;38531;53.296;6.614;2023-07-31T20:04:31;2.35;;;0.80;;
52642;SDS011;38531;53.296;6.614;2023-07-31T20:06:57;2.08;;;0.60;;
52642;SDS011;38531;53.296;6.614;2023-07-31T20:09:22;1.15;;;0.40;;
52642;SDS011;38531;53.296;6.614;2023-07-31T20:11:48;2.63;;;0.60;;
52642;SDS011;38531;53.296;6.614;2023-07-31T20:14:14;1.95;;;0.57;;
52642;SDS011;38531;53.296;6.614;2023-07-31T20:16:40;2.65;;;0.85;;
52642;SDS011;38531;53.296;6.614;2023-07-31T20:19:06;3.75;;;0.70;;
52642;SDS011;38531;53.296;6.614;2023-07-31T20:21:32;2.65;;;0.80;;
52642;SDS011;38531;53.296;6.614;2023-07-31T20:23:58;2.40;;;0.70;;
52642;SDS011;38531;53.296;6.614;2023-07-31T20:26:23;3.03;;;0.70;;
52642;SDS011;38531;53.296;6.614;2023-07-31T20:28:49;1.48;;;0.50;;
52642;SDS011;38531;53.296;6.614;2023-07-31T20:31:15;3.80;;;1.00;;
52642;SDS011;38531;53.296;6.614;2023-07-31T20:33:42;1.75;;;0.68;;
52642;SDS011;38531;53.296;6.614;2023-07-31T20:36:08;4.43;;;1.05;;
52642;SDS011;38531;53.296;6.614;2023-07-31T20:38:42;2.75;;;0.60;;
52642;SDS011;38531;53.296;6.614;2023-07-31T20:41:09;1.05;;;0.47;;
52642;SDS011;38531;53.296;6.614;2023-07-31T20:43:35;1.80;;;0.50;;
52642;SDS011;38531;53.296;6.614;2023-07-31T20:46:01;1.60;;;0.55;;
52642;SDS011;38531;53.296;6.614;2023-07-31T20:48:27;1.35;;;0.60;;
52642;SDS011;38531;53.296;6.614;2023-07-31T20:50:53;1.42;;;0.73;;
52642;SDS011;38531;53.296;6.614;2023-07-31T20:53:23;1.77;;;1.25;;
52642;SDS011;38531;53.296;6.614;2023-07-31T20:55:49;1.40;;;0.60;;
52642;SDS011;38531;53.296;6.614;2023-07-31T20:58:15;2.10;;;0.50;;